Time;durP1;ratioP1;P1;durP2;ratioP2;P2;SDS_P1;SDS_P2;PMS_P1;PMS_P2;Temp;Humidity;BMP_temperature;BMP_pressure;BME280_temperature;BME280_humidity;BME280_pressure;Samples;Min_cycle;Max_cycle;Signal;HPM_P1;HPM_P2
2022/10/05 00:02:19;;;;;;;9.20;8.40;;;15.30;99.90;;;;;;5018669;28;20424;-68
2022/10/05 00:04:47;;;;;;;9.70;8.80;;;15.30;99.90;;;;;;4999584;28;20565;-68
2022/10/05 00:07:17;;;;;;;8.23;7.63;;;15.20;99.90;;;;;;5033918;28;20478;-68
2022/10/05 00:09:46;;;;;;;9.63;8.63;;;15.20;99.90;;;;;;5037370;28;21011;-68
2022/10/05 00:12:14;;;;;;;9.00;8.10;;;15.20;99.90;;;;;;5038418;28;20485;-68
2022/10/05 00:14:41;;;;;;;10.43;8.03;;;15.20;99.90;;;;;;5025052;28;20439;-69
2022/10/05 00:17:29;;;;;;;8.43;7.63;;;15.20;99.90;;;;;;5018449;28;20479;-68
2022/10/05 00:19:55;;;;;;;8.87;7.97;;;15.20;99.90;;;;;;5016440;28;20524;-68
2022/10/05 00:22:29;;;;;;;9.13;8.40;;;15.20;99.90;;;;;;5017262;28;20932;-68
2022/10/05 00:24:58;;;;;;;8.97;8.10;;;15.10;99.90;;;;;;5007719;28;20405;-68
2022/10/05 00:27:26;;;;;;;8.77;7.87;;;15.10;99.90;;;;;;5017737;28;20427;-68
2022/10/05 00:29:56;;;;;;;8.83;7.97;;;15.10;99.90;;;;;;5016694;28;20768;-68
2022/10/05 00:32:22;;;;;;;10.83;8.33;;;15.10;99.90;;;;;;5017513;28;20431;-68
2022/10/05 00:34:47;;;;;;;9.20;8.40;;;15.10;99.90;;;;;;5019026;28;20463;-68
2022/10/05 00:37:13;;;;;;;7.97;7.37;;;15.20;99.90;;;;;;5017689;28;20670;-68
2022/10/05 00:39:40;;;;;;;8.23;7.60;;;15.20;99.90;;;;;;5017196;28;20235;-76
2022/10/05 00:42:39;;;;;;;7.60;7.00;;;15.20;99.90;;;;;;5016283;28;20190;-68
2022/10/05 00:45:17;;;;;;;8.10;7.47;;;15.20;99.90;;;;;;5015306;28;20407;-68
2022/10/05 00:47:55;;;;;;;8.50;7.80;;;15.20;99.90;;;;;;5013624;28;20525;-68
2022/10/05 00:50:52;;;;;;;9.40;8.40;;;15.10;99.90;;;;;;5014209;28;20437;-67
2022/10/05 00:53:29;;;;;;;9.97;7.53;;;15.10;99.90;;;;;;5014450;28;20515;-68
2022/10/05 00:56:06;;;;;;;10.83;7.80;;;15.10;99.90;;;;;;5013912;28;20438;-68
2022/10/05 00:58:43;;;;;;;8.20;7.50;;;15.10;99.90;;;;;;5014140;28;20471;-68
2022/10/05 01:01:19;;;;;;;8.97;8.10;;;15.10;99.90;;;;;;5013860;28;20431;-68
2022/10/05 01:04:14;;;;;;;8.30;7.60;;;15.20;99.90;;;;;;5012302;28;20435;-68
2022/10/05 01:06:58;;;;;;;8.60;7.90;;;15.20;99.90;;;;;;5031627;28;20972;-75
2022/10/05 01:09:50;;;;;;;9.47;8.57;;;15.10;99.90;;;;;;5033109;28;20549;-69
2022/10/05 01:12:46;;;;;;;8.07;7.47;;;15.10;99.90;;;;;;5014489;28;20401;-69
2022/10/05 01:15:31;;;;;;;8.40;7.70;;;15.10;99.90;;;;;;5021271;28;21729;-68
2022/10/05 01:18:11;;;;;;;8.63;7.93;;;15.10;99.90;;;;;;5003620;28;20465;-68
2022/10/05 01:20:58;;;;;;;8.93;8.13;;;15.10;99.90;;;;;;5033489;28;20477;-68
2022/10/05 01:23:49;;;;;;;8.03;7.27;;;15.10;99.90;;;;;;5032130;28;20427;-68
2022/10/05 01:26:41;;;;;;;9.97;9.07;;;15.10;99.90;;;;;;5033764;28;20482;-68
2022/10/05 01:29:29;;;;;;;8.67;7.97;;;15.00;99.90;;;;;;5032853;28;20435;-68
2022/10/05 01:32:06;;;;;;;8.90;8.10;;;15.00;99.90;;;;;;5031885;28;20531;-68
2022/10/05 01:34:50;;;;;;;8.13;7.43;;;15.00;99.90;;;;;;5033418;28;20940;-68
2022/10/05 01:37:29;;;;;;;11.50;8.97;;;14.90;99.90;;;;;;5033365;28;20470;-67
2022/10/05 01:39:58;;;;;;;9.17;8.30;;;14.90;99.90;;;;;;4980644;28;21012;-69
2022/10/05 01:42:40;;;;;;;9.40;8.60;;;14.90;99.90;;;;;;5033324;28;20554;-68
2022/10/05 01:45:25;;;;;;;9.57;8.63;;;14.90;99.90;;;;;;5022819;28;20431;-67
2022/10/05 01:48:02;;;;;;;8.40;7.70;;;14.90;99.90;;;;;;5033056;28;20468;-68
2022/10/05 01:50:45;;;;;;;10.57;9.60;;;14.90;99.90;;;;;;5014158;28;20399;-67
2022/10/05 01:53:45;;;;;;;8.83;8.03;;;14.90;99.90;;;;;;5013831;28;20462;-68
2022/10/05 01:56:28;;;;;;;9.43;8.63;;;14.90;99.90;;;;;;5013981;28;20441;-68
2022/10/05 01:59:02;;;;;;;9.17;8.33;;;14.90;99.90;;;;;;5013169;28;20412;-68
2022/10/05 02:01:48;;;;;;;9.03;8.23;;;14.90;99.90;;;;;;5024127;28;20518;-68
2022/10/05 02:04:28;;;;;;;9.70;8.50;;;14.90;99.90;;;;;;5033683;28;20452;-68
2022/10/05 02:06:54;;;;;;;9.70;8.90;;;14.80;99.90;;;;;;5032376;28;20490;-68
2022/10/05 02:09:27;;;;;;;9.53;8.73;;;14.90;99.90;;;;;;5033697;28;20564;-67
2022/10/05 02:12:01;;;;;;;9.20;8.40;;;14.80;99.90;;;;;;5032670;28;20413;-68
2022/10/05 02:14:37;;;;;;;10.33;9.30;;;14.80;99.90;;;;;;5016247;28;20409;-68
2022/10/05 02:17:10;;;;;;;8.77;7.73;;;14.80;99.90;;;;;;5032201;28;20623;-68
2022/10/05 02:19:41;;;;;;;9.47;8.67;;;14.70;99.90;;;;;;5032472;28;20428;-68
2022/10/05 02:22:13;;;;;;;10.17;9.07;;;14.70;99.90;;;;;;5032365;28;20410;-68
2022/10/05 02:24:51;;;;;;;9.43;8.63;;;14.70;99.90;;;;;;5033411;28;20421;-68
2022/10/05 02:27:24;;;;;;;9.37;8.60;;;14.80;99.90;;;;;;5033008;28;20894;-67
2022/10/05 02:29:55;;;;;;;9.00;8.20;;;14.80;99.90;;;;;;5032345;28;20403;-68
2022/10/05 02:32:24;;;;;;;11.17;9.43;;;14.80;99.90;;;;;;5031605;28;20438;-68
2022/10/05 02:34:50;;;;;;;10.93;9.83;;;14.70;99.90;;;;;;5031071;28;20839;-68
2022/10/05 02:37:27;;;;;;;10.93;9.93;;;14.80;99.90;;;;;;5018177;28;20460;-68
2022/10/05 02:40:11;;;;;;;9.73;8.70;;;14.80;99.90;;;;;;4994821;28;20424;-68
2022/10/05 02:43:03;;;;;;;11.03;9.93;;;14.80;99.90;;;;;;5013577;28;20404;-68
2022/10/05 02:45:46;;;;;;;11.00;10.00;;;14.80;99.90;;;;;;5012992;28;20472;-68
2022/10/05 02:48:43;;;;;;;13.90;10.87;;;14.80;99.90;;;;;;5012825;28;20416;-68
2022/10/05 02:51:20;;;;;;;13.27;11.80;;;14.80;99.90;;;;;;5012149;28;20530;-68
2022/10/05 02:53:56;;;;;;;14.07;12.17;;;14.80;99.90;;;;;;5013121;28;20494;-76
2022/10/05 02:56:41;;;;;;;14.40;11.43;;;14.80;99.90;;;;;;4995517;28;20430;-68
2022/10/05 02:59:23;;;;;;;12.70;11.40;;;14.80;99.90;;;;;;5012036;28;21049;-68
2022/10/05 03:01:57;;;;;;;14.17;11.43;;;14.90;99.90;;;;;;5010860;28;20438;-67
2022/10/05 03:04:29;;;;;;;13.50;11.87;;;14.90;99.90;;;;;;5031680;28;20428;-68
2022/10/05 03:06:58;;;;;;;15.20;12.07;;;14.90;99.90;;;;;;5031773;28;20955;-67
2022/10/05 03:09:30;;;;;;;14.20;12.10;;;14.90;99.90;;;;;;5032503;28;20465;-67
2022/10/05 03:12:08;;;;;;;13.90;11.00;;;14.90;99.90;;;;;;5031300;28;20772;-68
2022/10/05 03:14:51;;;;;;;13.90;12.40;;;14.90;99.90;;;;;;5032962;28;20464;-68
2022/10/05 03:17:29;;;;;;;16.70;11.70;;;14.90;99.90;;;;;;5033156;28;20917;-68
2022/10/05 03:20:28;;;;;;;11.30;10.27;;;14.90;99.90;;;;;;5032183;28;20391;-67
2022/10/05 03:22:59;;;;;;;11.10;10.10;;;14.90;99.90;;;;;;5014388;28;20421;-68
2022/10/05 03:26:07;;;;;;;11.83;10.53;;;14.90;99.90;;;;;;5032433;28;20387;-67
2022/10/05 03:29:00;;;;;;;10.57;9.57;;;14.90;99.90;;;;;;5031678;28;20428;-67
2022/10/05 03:31:41;;;;;;;9.70;8.70;;;14.90;99.90;;;;;;5013593;28;20435;-67
2022/10/05 03:34:20;;;;;;;10.70;9.80;;;14.90;99.90;;;;;;5031839;28;20617;-68
2022/10/05 03:36:49;;;;;;;10.20;9.30;;;15.00;99.90;;;;;;5032302;28;20443;-68
2022/10/05 03:39:33;;;;;;;9.63;8.73;;;14.90;99.90;;;;;;5032588;28;20418;-67
2022/10/05 03:42:04;;;;;;;9.07;8.33;;;15.00;99.90;;;;;;5031860;28;20490;-68
2022/10/05 03:44:36;;;;;;;12.13;8.43;;;15.00;99.90;;;;;;5031570;28;20408;-65
2022/10/05 03:47:25;;;;;;;10.40;9.47;;;15.00;99.90;;;;;;5031767;28;20435;-64
2022/10/05 03:50:28;;;;;;;11.73;10.63;;;15.00;99.90;;;;;;5031943;28;20403;-64
2022/10/05 03:53:04;;;;;;;11.00;8.90;;;15.00;99.90;;;;;;5031817;28;20416;-64
2022/10/05 03:55:58;;;;;;;8.90;8.10;;;15.00;99.90;;;;;;5031330;28;20437;-64
2022/10/05 03:58:33;;;;;;;9.23;8.30;;;15.00;99.90;;;;;;5032401;28;20462;-64
2022/10/05 04:01:04;;;;;;;10.73;9.77;;;14.90;99.90;;;;;;5026349;28;20438;-64
2022/10/05 04:03:43;;;;;;;9.00;8.10;;;14.90;99.90;;;;;;5031426;28;20457;-64
2022/10/05 04:06:44;;;;;;;9.20;8.00;;;14.90;99.90;;;;;;5031897;28;20826;-64
2022/10/05 04:09:27;;;;;;;9.13;7.63;;;14.80;99.90;;;;;;4974860;28;20440;-64
2022/10/05 04:12:01;;;;;;;9.27;8.47;;;14.80;99.90;;;;;;5012047;28;20801;-64
2022/10/05 04:14:39;;;;;;;10.67;9.70;;;14.80;99.90;;;;;;5012526;28;20399;-64
2022/10/05 04:17:12;;;;;;;13.53;9.30;;;14.70;99.90;;;;;;5011322;28;20471;-64
2022/10/05 04:19:53;;;;;;;11.30;10.10;;;14.70;99.90;;;;;;5016092;28;20493;-64
2022/10/05 04:22:29;;;;;;;9.67;8.77;;;14.70;99.90;;;;;;5016248;28;20395;-64
2022/10/05 04:25:01;;;;;;;10.87;9.30;;;14.70;99.90;;;;;;5015600;28;20391;-64
2022/10/05 04:27:34;;;;;;;9.40;8.50;;;14.60;99.90;;;;;;5015557;28;20807;-65
2022/10/05 04:30:04;;;;;;;12.20;9.03;;;14.60;99.90;;;;;;5011595;28;20420;-65
2022/10/05 04:32:35;;;;;;;10.37;9.40;;;14.60;99.90;;;;;;5005963;28;20431;-64
2022/10/05 04:35:37;;;;;;;9.60;8.73;;;14.60;99.90;;;;;;5012116;28;20468;-63
2022/10/05 04:38:14;;;;;;;9.97;8.10;;;14.70;99.90;;;;;;5009126;28;20465;-64
2022/10/05 04:41:04;;;;;;;8.87;8.07;;;14.70;99.90;;;;;;4996050;28;20939;-64
2022/10/05 04:43:58;;;;;;;10.40;9.30;;;14.70;99.90;;;;;;4978685;28;20891;-64
2022/10/05 04:46:44;;;;;;;10.93;8.97;;;14.70;99.90;;;;;;5012362;28;20418;-64
2022/10/05 04:49:28;;;;;;;10.37;8.70;;;14.60;99.90;;;;;;5015329;28;20414;-64
2022/10/05 04:52:09;;;;;;;9.00;8.10;;;14.70;99.90;;;;;;5017474;28;20458;-64
2022/10/05 04:55:02;;;;;;;12.17;10.97;;;14.70;99.90;;;;;;5035520;28;20460;-64
2022/10/05 04:57:54;;;;;;;11.17;10.10;;;14.70;99.90;;;;;;5017025;28;20461;-65
2022/10/05 05:00:44;;;;;;;9.20;8.30;;;14.70;99.90;;;;;;5006617;28;20433;-64
2022/10/05 05:03:20;;;;;;;12.40;9.10;;;14.70;99.90;;;;;;4995259;28;20431;-64
2022/10/05 05:06:08;;;;;;;10.80;9.70;;;14.70;99.90;;;;;;5000501;28;20511;-69
2022/10/05 05:08:56;;;;;;;8.90;8.00;;;14.70;99.90;;;;;;5030330;28;20517;-64
2022/10/05 05:11:40;;;;;;;12.03;11.13;;;14.80;99.90;;;;;;5015260;28;20590;-64
2022/10/05 05:14:26;;;;;;;9.57;8.70;;;14.80;99.90;;;;;;5033315;28;20448;-64
2022/10/05 05:17:21;;;;;;;10.07;9.17;;;14.80;99.90;;;;;;5001658;28;20470;-64
2022/10/05 05:20:05;;;;;;;9.50;8.50;;;14.80;99.90;;;;;;5024738;28;20447;-64
2022/10/05 05:22:45;;;;;;;10.93;9.77;;;14.90;99.90;;;;;;5032737;28;20440;-65
2022/10/05 05:25:30;;;;;;;13.53;9.20;;;14.80;99.90;;;;;;5034278;28;20413;-65
2022/10/05 05:28:20;;;;;;;9.67;8.50;;;14.90;99.90;;;;;;5024625;28;20518;-65
2022/10/05 05:31:30;;;;;;;12.23;9.97;;;14.90;99.90;;;;;;5014923;28;20738;-65
2022/10/05 05:34:13;;;;;;;11.33;10.20;;;15.00;99.90;;;;;;5014350;28;20398;-65
2022/10/05 05:37:02;;;;;;;10.90;9.37;;;15.00;99.90;;;;;;5014865;28;20513;-65
2022/10/05 05:39:38;;;;;;;10.90;9.80;;;14.80;99.90;;;;;;5014607;28;20901;-65
2022/10/05 05:42:23;;;;;;;10.87;9.70;;;14.80;99.90;;;;;;5016925;28;20411;-65
2022/10/05 05:44:51;;;;;;;12.77;9.40;;;14.80;99.90;;;;;;4962463;28;20423;-64
2022/10/05 05:47:39;;;;;;;9.57;8.53;;;14.90;99.90;;;;;;5014180;28;20951;-63
2022/10/05 05:50:23;;;;;;;10.83;9.17;;;14.80;99.90;;;;;;5013993;28;20752;-62
2022/10/05 05:52:58;;;;;;;10.17;9.27;;;14.90;99.90;;;;;;5016313;28;20413;-63
2022/10/05 05:55:39;;;;;;;9.40;8.43;;;14.80;99.90;;;;;;5033567;28;20417;-63
2022/10/05 05:58:18;;;;;;;9.57;8.67;;;14.80;99.90;;;;;;5032971;28;20464;-63
2022/10/05 06:01:06;;;;;;;11.63;9.30;;;14.80;99.90;;;;;;5034109;28;20433;-63
2022/10/05 06:04:07;;;;;;;9.50;8.60;;;14.80;99.90;;;;;;5032883;28;20435;-63
2022/10/05 06:06:37;;;;;;;8.93;6.90;;;14.90;99.90;;;;;;4998611;28;20477;-63
2022/10/05 06:09:17;;;;;;;9.60;8.70;;;14.80;99.90;;;;;;5033407;28;20414;-63
2022/10/05 06:11:55;;;;;;;9.50;8.67;;;14.80;99.90;;;;;;5033955;28;20395;-63
2022/10/05 06:14:42;;;;;;;9.43;8.63;;;15.00;99.90;;;;;;5020036;28;20500;-63
2022/10/05 06:17:19;;;;;;;8.70;7.90;;;14.90;99.90;;;;;;5031436;28;20461;-63
2022/10/05 06:19:48;;;;;;;9.20;8.40;;;14.90;99.90;;;;;;5032718;28;20441;-63
2022/10/05 06:22:23;;;;;;;11.10;8.50;;;15.00;99.90;;;;;;5033035;28;20443;-63
2022/10/05 06:25:12;;;;;;;8.53;7.80;;;15.10;99.90;;;;;;5032231;28;20915;-63
2022/10/05 06:28:00;;;;;;;8.67;7.80;;;14.90;99.90;;;;;;5031728;28;20456;-63
2022/10/05 06:30:33;;;;;;;8.30;7.50;;;14.90;99.90;;;;;;5013448;28;20767;-63
2022/10/05 06:33:05;;;;;;;8.20;7.47;;;15.00;99.90;;;;;;5022225;28;20422;-63
2022/10/05 06:35:30;;;;;;;9.97;7.30;;;15.10;99.90;;;;;;5015847;28;20962;-63
2022/10/05 06:38:08;;;;;;;8.33;7.53;;;15.10;99.90;;;;;;5031591;28;20557;-63
2022/10/05 06:41:01;;;;;;;8.47;7.77;;;15.00;99.90;;;;;;5032461;28;20166;-63
2022/10/05 06:43:42;;;;;;;9.73;9.03;;;15.00;99.90;;;;;;5033284;28;20419;-62
2022/10/05 06:46:17;;;;;;;8.53;7.73;;;15.10;99.90;;;;;;5032802;28;20451;-63
2022/10/05 06:49:02;;;;;;;11.40;10.70;;;15.20;99.90;;;;;;5033330;28;20406;-63
2022/10/05 06:51:38;;;;;;;8.47;7.70;;;15.20;99.90;;;;;;5032790;28;20757;-63
2022/10/05 06:54:35;;;;;;;7.43;6.83;;;15.30;99.90;;;;;;5032315;28;20419;-63
2022/10/05 06:57:18;;;;;;;7.50;6.80;;;15.30;99.90;;;;;;5032126;28;20956;-63
2022/10/05 07:00:06;;;;;;;7.33;6.63;;;15.20;99.90;;;;;;5033192;28;20448;-62
2022/10/05 07:02:44;;;;;;;9.27;7.27;;;15.30;99.90;;;;;;5033027;28;20414;-63
2022/10/05 07:05:18;;;;;;;6.83;6.33;;;15.30;99.90;;;;;;5032425;28;20403;-62
2022/10/05 07:07:54;;;;;;;10.53;8.60;;;15.40;99.90;;;;;;5032899;28;20404;-63
2022/10/05 07:10:35;;;;;;;9.07;8.37;;;15.50;99.90;;;;;;5030701;28;20416;-63
2022/10/05 07:13:29;;;;;;;6.50;6.10;;;15.50;99.90;;;;;;5026191;28;20415;-63
2022/10/05 07:16:17;;;;;;;7.20;6.50;;;15.60;99.90;;;;;;5018274;28;20420;-63
2022/10/05 07:19:02;;;;;;;6.73;6.10;;;15.60;99.90;;;;;;5032873;28;20463;-63
2022/10/05 07:21:38;;;;;;;6.80;6.30;;;15.70;99.90;;;;;;5032904;28;20478;-63
2022/10/05 07:24:19;;;;;;;7.80;7.20;;;15.70;99.90;;;;;;5031776;28;20423;-63
2022/10/05 07:27:03;;;;;;;7.57;6.80;;;15.70;99.90;;;;;;5032524;28;20506;-63
2022/10/05 07:29:51;;;;;;;6.93;6.33;;;15.80;99.90;;;;;;5014985;28;21001;-63
2022/10/05 07:32:38;;;;;;;7.30;6.70;;;15.90;99.90;;;;;;5032003;28;20764;-63
2022/10/05 07:35:04;;;;;;;6.90;6.40;;;16.00;99.90;;;;;;5032051;28;20473;-63
2022/10/05 07:40:17;;;;;;;6.67;6.03;;;16.00;99.90;;;;;;5031914;28;20162;-63
2022/10/05 07:43:30;;;;;;;8.37;7.67;;;16.00;99.90;;;;;;5032603;28;20455;-63
2022/10/05 07:46:05;;;;;;;6.90;6.40;;;16.10;99.90;;;;;;4996788;28;20213;-66
2022/10/05 07:49:15;;;;;;;6.37;5.97;;;16.10;99.90;;;;;;5032518;28;20428;-64
2022/10/05 07:51:47;;;;;;;6.70;6.20;;;16.20;99.90;;;;;;5032135;28;20404;-64
2022/10/05 07:54:20;;;;;;;6.30;5.80;;;16.30;99.90;;;;;;5033810;28;20463;-63
2022/10/05 07:57:14;;;;;;;7.13;6.63;;;16.30;99.90;;;;;;5016748;28;20552;-62
2022/10/05 07:59:57;;;;;;;6.73;6.33;;;16.30;99.90;;;;;;5028525;28;20432;-63
2022/10/05 08:02:32;;;;;;;9.37;8.63;;;16.30;99.90;;;;;;5025599;28;20779;-62
2022/10/05 08:05:04;;;;;;;6.90;6.27;;;16.30;99.90;;;;;;5036328;28;20388;-62
2022/10/05 08:07:33;;;;;;;7.93;7.43;;;16.30;99.90;;;;;;5036568;28;20537;-63
2022/10/05 08:10:19;;;;;;;6.10;5.60;;;16.30;99.90;;;;;;5034811;28;20434;-62
2022/10/05 08:13:10;;;;;;;7.10;6.53;;;16.30;99.90;;;;;;5035130;28;20774;-65
2022/10/05 08:15:46;;;;;;;8.50;7.90;;;16.30;99.90;;;;;;5032152;28;20421;-63
2022/10/05 08:18:49;;;;;;;8.10;7.50;;;16.40;99.90;;;;;;5034452;28;20487;-63
2022/10/05 08:21:20;;;;;;;7.87;7.27;;;16.40;99.90;;;;;;5017052;28;20405;-63
2022/10/05 08:23:54;;;;;;;7.90;7.40;;;16.40;99.90;;;;;;5034600;28;20432;-62
2022/10/05 08:26:54;;;;;;;8.40;7.73;;;16.40;99.90;;;;;;5035532;28;20454;-63
2022/10/05 08:29:38;;;;;;;5.97;5.37;;;16.40;99.90;;;;;;5035282;28;20400;-63
2022/10/05 08:32:15;;;;;;;6.40;5.80;;;16.40;99.90;;;;;;5035741;28;20459;-70
2022/10/05 08:34:55;;;;;;;7.47;6.87;;;16.40;99.90;;;;;;5017674;28;20458;-63
2022/10/05 08:37:26;;;;;;;9.50;8.80;;;16.40;99.90;;;;;;4983724;28;20796;-62
2022/10/05 08:40:14;;;;;;;7.70;7.10;;;16.40;99.90;;;;;;5035150;28;20428;-62
2022/10/05 08:42:57;;;;;;;9.17;8.20;;;16.40;99.90;;;;;;5035733;28;20397;-62
2022/10/05 08:45:45;;;;;;;7.53;7.03;;;16.40;99.90;;;;;;5034669;28;20422;-62
2022/10/05 08:48:17;;;;;;;8.17;7.67;;;16.40;99.90;;;;;;5035005;28;20408;-62
2022/10/05 08:51:02;;;;;;;8.40;7.70;;;16.30;99.90;;;;;;5035503;28;20428;-63
2022/10/05 08:54:05;;;;;;;9.00;8.40;;;16.40;99.90;;;;;;5033025;28;20429;-62
2022/10/05 08:56:50;;;;;;;7.60;6.90;;;16.30;99.90;;;;;;4950440;28;20439;-62
2022/10/05 08:59:48;;;;;;;7.97;7.37;;;16.30;99.90;;;;;;4953599;29;20781;-63
2022/10/05 09:02:20;;;;;;;7.27;6.80;;;16.30;99.90;;;;;;4953781;29;20409;-62
2022/10/05 09:05:22;;;;;;;7.10;6.60;;;16.40;99.90;;;;;;4953795;28;20831;-62
2022/10/05 09:08:21;;;;;;;8.50;7.70;;;16.50;99.90;;;;;;4954674;29;20506;-63
2022/10/05 09:11:30;;;;;;;6.70;6.20;;;16.40;99.90;;;;;;4954593;29;20536;-63
2022/10/05 09:14:23;;;;;;;6.37;5.80;;;16.40;99.90;;;;;;4954592;29;20408;-63
2022/10/05 09:17:01;;;;;;;5.70;5.30;;;16.40;99.90;;;;;;4954378;29;20975;-62
2022/10/05 09:19:48;;;;;;;5.90;5.47;;;16.50;99.90;;;;;;4954094;29;20495;-63
2022/10/05 09:22:32;;;;;;;6.40;5.90;;;16.50;99.90;;;;;;4953138;28;21003;-63
2022/10/05 09:25:24;;;;;;;6.50;5.93;;;16.60;99.90;;;;;;4953323;28;20447;-63
2022/10/05 09:28:16;;;;;;;6.40;5.90;;;16.60;99.90;;;;;;5004450;28;20421;-63
2022/10/05 09:31:16;;;;;;;5.53;5.03;;;16.60;99.90;;;;;;5034304;28;20390;-63
2022/10/05 09:34:25;;;;;;;6.90;6.40;;;16.70;99.90;;;;;;5033539;28;20440;-62
2022/10/05 09:37:07;;;;;;;5.53;5.13;;;16.80;99.90;;;;;;5034573;28;20498;-63
2022/10/05 09:40:08;;;;;;;6.60;6.10;;;16.90;99.90;;;;;;5034199;28;20405;-63
2022/10/05 09:42:55;;;;;;;6.07;5.57;;;16.90;99.90;;;;;;4973251;28;20427;-63
2022/10/05 09:45:39;;;;;;;5.87;5.47;;;17.00;99.90;;;;;;5029806;28;20433;-63
2022/10/05 09:48:42;;;;;;;5.73;5.33;;;17.20;99.90;;;;;;5034382;28;20417;-62
2022/10/05 09:51:45;;;;;;;7.67;7.00;;;17.30;99.90;;;;;;5034066;28;20393;-62
2022/10/05 09:54:46;;;;;;;5.97;5.57;;;17.40;99.90;;;;;;5033634;28;20411;-63
2022/10/05 09:57:26;;;;;;;5.47;5.00;;;17.60;99.90;;;;;;5033201;28;20445;-63
2022/10/05 10:00:06;;;;;;;4.90;4.60;;;17.70;99.90;;;;;;5034247;28;20397;-62
2022/10/05 10:03:04;;;;;;;6.13;5.63;;;17.80;99.90;;;;;;5015169;28;20435;-63
2022/10/05 10:05:50;;;;;;;6.53;6.23;;;17.90;99.90;;;;;;5033140;28;20709;-63
2022/10/05 10:08:53;;;;;;;5.23;4.93;;;18.00;99.90;;;;;;5033375;28;20482;-63
2022/10/05 10:11:27;;;;;;;5.13;4.73;;;18.00;99.90;;;;;;5033218;28;20401;-63
2022/10/05 10:14:27;;;;;;;5.57;5.17;;;18.10;99.90;;;;;;5031376;28;20838;-63
2022/10/05 10:17:11;;;;;;;5.23;4.83;;;18.10;99.90;;;;;;5033619;28;20551;-63
2022/10/05 10:19:43;;;;;;;5.30;4.90;;;18.00;99.90;;;;;;5033724;28;20417;-63
2022/10/05 10:22:27;;;;;;;6.67;6.37;;;17.90;99.90;;;;;;5033674;28;20423;-63
2022/10/05 10:25:37;;;;;;;6.80;6.40;;;17.90;99.90;;;;;;5033632;28;20479;-63
2022/10/05 10:28:29;;;;;;;4.13;3.87;;;18.00;99.90;;;;;;4999901;28;20433;-63
2022/10/05 10:31:31;;;;;;;7.60;7.00;;;18.10;99.90;;;;;;5033739;28;20425;-63
2022/10/05 10:34:27;;;;;;;5.97;5.67;;;17.90;99.90;;;;;;5033219;28;20888;-63
2022/10/05 10:37:12;;;;;;;4.30;4.00;;;17.70;99.90;;;;;;5032070;28;21015;-62
2022/10/05 10:40:36;;;;;;;5.90;5.47;;;17.80;99.90;;;;;;5033445;28;20398;-63
2022/10/05 10:43:33;;;;;;;5.40;5.10;;;17.90;99.90;;;;;;4952779;29;20433;-62
2022/10/05 10:46:17;;;;;;;6.40;6.00;;;17.90;99.90;;;;;;5033250;28;20417;-63
2022/10/05 10:49:14;;;;;;;5.63;5.23;;;18.00;99.90;;;;;;4993234;28;20403;-63
2022/10/05 10:52:03;;;;;;;4.60;4.30;;;18.00;99.90;;;;;;4993421;28;20438;-63
2022/10/05 10:54:51;;;;;;;5.80;5.30;;;18.00;99.90;;;;;;4992749;28;20391;-63
2022/10/05 10:57:38;;;;;;;5.53;5.23;;;18.00;99.90;;;;;;4992569;28;20455;-69
2022/10/05 11:00:22;;;;;;;4.93;4.63;;;17.90;99.90;;;;;;4993749;28;20740;-63
2022/10/05 11:03:07;;;;;;;4.77;4.47;;;17.90;99.90;;;;;;4993362;28;20399;-63
2022/10/05 11:06:06;;;;;;;4.50;4.10;;;18.00;99.90;;;;;;4995737;28;20552;-63
2022/10/05 11:08:50;;;;;;;6.10;5.70;;;18.00;99.90;;;;;;5011378;28;20415;-63
2022/10/05 11:11:22;;;;;;;5.67;5.37;;;18.00;99.90;;;;;;5012235;28;20886;-63
2022/10/05 11:14:02;;;;;;;4.70;4.40;;;18.10;99.90;;;;;;5013056;28;20414;-62
2022/10/05 11:16:54;;;;;;;4.53;4.13;;;18.20;99.90;;;;;;5019121;28;20448;-63
2022/10/05 11:19:31;;;;;;;5.90;5.37;;;18.40;99.90;;;;;;5032134;28;20833;-63
2022/10/05 11:22:21;;;;;;;4.83;4.53;;;18.50;99.90;;;;;;5032682;28;20443;-62
2022/10/05 11:24:59;;;;;;;5.83;5.30;;;18.60;99.90;;;;;;5032643;28;20408;-63
2022/10/05 11:27:34;;;;;;;4.83;4.53;;;18.60;99.90;;;;;;5031948;28;20416;-63
2022/10/05 11:30:30;;;;;;;4.17;3.87;;;18.50;99.90;;;;;;5032600;28;20480;-63
2022/10/05 11:32:59;;;;;;;6.13;4.10;;;18.50;99.90;;;;;;5032644;28;20417;-63
2022/10/05 11:35:55;;;;;;;4.50;4.30;;;18.80;99.90;;;;;;5013633;28;20787;-63
2022/10/05 11:38:51;;;;;;;4.37;4.07;;;19.00;99.90;;;;;;5031957;28;20510;-63
2022/10/05 11:41:40;;;;;;;4.40;4.10;;;19.10;99.90;;;;;;5032350;28;20404;-63
2022/10/05 11:44:38;;;;;;;4.43;4.00;;;19.20;99.60;;;;;;5032585;28;20468;-63
2022/10/05 11:47:30;;;;;;;3.87;3.60;;;19.10;99.70;;;;;;5032656;28;20429;-63
2022/10/05 11:50:18;;;;;;;4.17;3.87;;;19.20;99.90;;;;;;4981258;28;20428;-63
2022/10/05 11:52:46;;;;;;;4.00;3.70;;;19.40;99.60;;;;;;5032362;28;20400;-63
2022/10/05 11:55:56;;;;;;;4.30;3.90;;;19.30;99.60;;;;;;5032332;28;20412;-63
2022/10/05 11:58:28;;;;;;;4.00;3.80;;;19.40;99.90;;;;;;4997694;28;20483;-64
2022/10/05 12:01:23;;;;;;;4.10;3.90;;;19.60;99.90;;;;;;5030832;28;20960;-63
2022/10/05 12:04:10;;;;;;;5.03;4.70;;;19.60;99.40;;;;;;5032335;28;20797;-62
2022/10/05 12:07:17;;;;;;;4.10;3.90;;;19.30;99.90;;;;;;5031149;28;20452;-63
2022/10/05 12:10:16;;;;;;;3.90;3.60;;;19.40;99.90;;;;;;5032211;28;20416;-63
2022/10/05 12:12:57;;;;;;;4.50;4.20;;;19.60;99.90;;;;;;5022595;28;20425;-63
2022/10/05 12:15:34;;;;;;;4.23;4.03;;;19.60;99.90;;;;;;5031611;28;20447;-63
2022/10/05 12:18:18;;;;;;;4.80;4.40;;;19.60;99.70;;;;;;5032117;28;20526;-63
2022/10/05 12:20:51;;;;;;;5.30;4.90;;;19.60;99.90;;;;;;5014809;28;20397;-63
2022/10/05 12:23:45;;;;;;;5.00;4.60;;;19.50;99.90;;;;;;5032131;28;20421;-63
2022/10/05 12:26:21;;;;;;;6.83;5.93;;;19.40;99.90;;;;;;5031850;28;20416;-63
2022/10/05 12:28:56;;;;;;;5.30;5.00;;;19.40;99.90;;;;;;5032234;28;20772;-63
2022/10/05 12:31:48;;;;;;;5.13;4.73;;;19.10;99.90;;;;;;5031548;28;20408;-63
2022/10/05 12:34:25;;;;;;;4.77;4.47;;;19.10;99.90;;;;;;5007802;28;20420;-66
2022/10/05 12:37:15;;;;;;;4.20;3.90;;;19.10;99.90;;;;;;4992690;28;20457;-63
2022/10/05 12:40:30;;;;;;;4.23;3.93;;;19.10;99.90;;;;;;4994139;28;20926;-63
2022/10/05 12:43:07;;;;;;;4.37;4.07;;;19.20;99.90;;;;;;4955030;29;20436;-63
2022/10/05 12:46:03;;;;;;;4.80;4.50;;;19.20;99.90;;;;;;4990045;28;20787;-63
2022/10/05 12:48:55;;;;;;;4.40;4.00;;;19.20;99.90;;;;;;4995529;28;20481;-63
2022/10/05 12:51:25;;;;;;;4.00;3.80;;;19.30;99.90;;;;;;4994305;28;20474;-64
2022/10/05 12:54:09;;;;;;;4.30;3.90;;;19.40;99.90;;;;;;4995672;28;20548;-63
2022/10/05 12:56:56;;;;;;;4.10;3.90;;;19.50;99.90;;;;;;4995004;28;20888;-63
2022/10/05 12:59:40;;;;;;;4.80;4.40;;;19.60;99.90;;;;;;4995269;28;20426;-64
2022/10/05 13:02:14;;;;;;;4.37;4.17;;;19.70;99.90;;;;;;5001758;28;20816;-63
2022/10/05 13:05:01;;;;;;;4.17;3.87;;;19.70;99.90;;;;;;5034474;28;20412;-63
2022/10/05 13:08:03;;;;;;;4.47;4.07;;;19.70;99.90;;;;;;5034555;28;20461;-63
2022/10/05 13:10:41;;;;;;;3.60;3.40;;;19.60;99.70;;;;;;5034325;28;20425;-63
2022/10/05 13:13:45;;;;;;;3.90;3.60;;;19.60;99.90;;;;;;5034947;28;20471;-63
2022/10/05 13:16:33;;;;;;;3.60;3.40;;;19.60;99.90;;;;;;5034310;28;20425;-63
2022/10/05 13:19:11;;;;;;;3.40;3.20;;;19.60;99.10;;;;;;5035084;28;20528;-63
2022/10/05 13:22:01;;;;;;;3.60;3.40;;;19.60;99.40;;;;;;5034300;28;20401;-63
2022/10/05 13:24:35;;;;;;;4.27;3.97;;;19.70;99.10;;;;;;5034275;28;20447;-63
2022/10/05 13:27:17;;;;;;;3.17;2.97;;;19.80;98.90;;;;;;5034585;28;20551;-63
2022/10/05 13:30:02;;;;;;;3.37;3.17;;;19.90;98.80;;;;;;5033864;28;20401;-63
2022/10/05 13:32:35;;;;;;;3.70;3.50;;;20.00;98.80;;;;;;5032193;28;20433;-63
2022/10/05 13:35:30;;;;;;;24.60;20.20;;;20.10;97.70;;;;;;5034791;28;20413;-63
2022/10/05 13:38:13;;;;;;;212.40;160.47;;;20.10;98.10;;;;;;5034371;28;20552;-63
2022/10/05 13:40:58;;;;;;;5.13;4.73;;;20.20;97.30;;;;;;5034003;28;20848;-63
2022/10/05 13:43:30;;;;;;;3.37;3.17;;;20.30;97.30;;;;;;5033915;28;20472;-63
2022/10/05 13:46:14;;;;;;;4.63;4.00;;;20.40;97.40;;;;;;5027746;28;21026;-61
2022/10/05 13:48:48;;;;;;;4.00;3.70;;;20.60;97.20;;;;;;5031047;28;20796;-61
2022/10/05 13:51:35;;;;;;;3.50;3.30;;;20.70;96.90;;;;;;5034120;28;20887;-61
2022/10/05 13:54:27;;;;;;;3.87;3.67;;;20.70;96.40;;;;;;5034338;28;20401;-61
2022/10/05 13:57:05;;;;;;;6.33;3.93;;;20.50;96.50;;;;;;5034022;28;20453;-62
2022/10/05 13:59:45;;;;;;;4.00;3.80;;;20.30;96.80;;;;;;4994128;28;20485;-62
2022/10/05 14:02:20;;;;;;;4.00;3.80;;;20.40;96.10;;;;;;4994767;28;20403;-63
2022/10/05 14:04:49;;;;;;;3.60;3.40;;;20.50;95.40;;;;;;4994054;28;20413;-63
2022/10/05 14:07:55;;;;;;;5.20;4.10;;;20.60;95.30;;;;;;5011591;28;20457;-64
2022/10/05 14:10:41;;;;;;;5.93;3.87;;;20.70;95.30;;;;;;5002650;28;20468;-63